sensor_id;sensor_type;location;lat;lon;timestamp;P1;durP1;ratioP1;P2;durP2;ratioP2
41446;SDS011;27185;52.040;4.490;2024-01-15T00:02:14;17.20;;;1.35;;
41446;SDS011;27185;52.040;4.490;2024-01-15T00:05:00;8.45;;;1.20;;
41446;SDS011;27185;52.040;4.490;2024-01-15T00:07:45;14.10;;;1.50;;
41446;SDS011;27185;52.040;4.490;2024-01-15T00:10:31;9.27;;;0.95;;
41446;SDS011;27185;52.040;4.490;2024-01-15T00:13:16;14.02;;;1.88;;
41446;SDS011;27185;52.040;4.490;2024-01-15T00:16:02;12.38;;;1.15;;
41446;SDS011;27185;52.040;4.490;2024-01-15T00:18:49;7.72;;;1.23;;
41446;SDS011;27185;52.040;4.490;2024-01-15T00:21:34;9.40;;;1.40;;
41446;SDS011;27185;52.040;4.490;2024-01-15T00:24:20;9.63;;;1.38;;
41446;SDS011;27185;52.040;4.490;2024-01-15T00:27:05;7.45;;;0.70;;
41446;SDS011;27185;52.040;4.490;2024-01-15T00:29:51;17.50;;;1.77;;
41446;SDS011;27185;52.040;4.490;2024-01-15T00:32:37;12.25;;;1.08;;
41446;SDS011;27185;52.040;4.490;2024-01-15T00:35:23;9.05;;;1.02;;
41446;SDS011;27185;52.040;4.490;2024-01-15T00:38:08;6.90;;;0.95;;
41446;SDS011;27185;52.040;4.490;2024-01-15T00:40:54;10.52;;;1.00;;
41446;SDS011;27185;52.040;4.490;2024-01-15T00:43:40;8.00;;;1.10;;
41446;SDS011;27185;52.040;4.490;2024-01-15T00:46:25;14.00;;;1.70;;
41446;SDS011;27185;52.040;4.490;2024-01-15T00:49:12;9.80;;;0.82;;
41446;SDS011;27185;52.040;4.490;2024-01-15T00:51:58;8.60;;;1.13;;
41446;SDS011;27185;52.040;4.490;2024-01-15T00:54:43;12.15;;;1.10;;
41446;SDS011;27185;52.040;4.490;2024-01-15T00:57:29;8.00;;;1.02;;
41446;SDS011;27185;52.040;4.490;2024-01-15T01:00:14;8.07;;;1.25;;
41446;SDS011;27185;52.040;4.490;2024-01-15T01:03:00;8.95;;;1.17;;
41446;SDS011;27185;52.040;4.490;2024-01-15T01:05:48;11.95;;;0.77;;
41446;SDS011;27185;52.040;4.490;2024-01-15T01:08:34;7.00;;;0.90;;
41446;SDS011;27185;52.040;4.490;2024-01-15T01:11:20;6.93;;;0.93;;
41446;SDS011;27185;52.040;4.490;2024-01-15T01:14:06;12.23;;;1.33;;
41446;SDS011;27185;52.040;4.490;2024-01-15T01:16:51;9.73;;;1.00;;
41446;SDS011;27185;52.040;4.490;2024-01-15T01:19:37;9.75;;;1.08;;
41446;SDS011;27185;52.040;4.490;2024-01-15T01:22:23;16.15;;;1.02;;
41446;SDS011;27185;52.040;4.490;2024-01-15T01:25:08;11.18;;;1.00;;
41446;SDS011;27185;52.040;4.490;2024-01-15T01:27:54;6.38;;;1.23;;
41446;SDS011;27185;52.040;4.490;2024-01-15T01:30:39;10.68;;;1.15;;
41446;SDS011;27185;52.040;4.490;2024-01-15T01:33:25;11.68;;;0.73;;
41446;SDS011;27185;52.040;4.490;2024-01-15T01:36:10;8.10;;;0.88;;
41446;SDS011;27185;52.040;4.490;2024-01-15T01:38:56;10.80;;;0.90;;
41446;SDS011;27185;52.040;4.490;2024-01-15T01:41:42;5.47;;;0.70;;
41446;SDS011;27185;52.040;4.490;2024-01-15T01:44:27;6.57;;;0.82;;
41446;SDS011;27185;52.040;4.490;2024-01-15T01:47:13;7.97;;;0.60;;
41446;SDS011;27185;52.040;4.490;2024-01-15T01:49:59;12.07;;;0.80;;
41446;SDS011;27185;52.040;4.490;2024-01-15T01:52:48;3.58;;;0.55;;
41446;SDS011;27185;52.040;4.490;2024-01-15T01:55:34;7.13;;;1.33;;
41446;SDS011;27185;52.040;4.490;2024-01-15T01:58:21;6.55;;;0.70;;
41446;SDS011;27185;52.040;4.490;2024-01-15T02:01:06;9.30;;;0.85;;
41446;SDS011;27185;52.040;4.490;2024-01-15T02:03:52;11.23;;;1.23;;
41446;SDS011;27185;52.040;4.490;2024-01-15T02:06:38;9.32;;;0.80;;
41446;SDS011;27185;52.040;4.490;2024-01-15T02:09:23;15.30;;;0.88;;
41446;SDS011;27185;52.040;4.490;2024-01-15T02:12:10;5.53;;;0.68;;
41446;SDS011;27185;52.040;4.490;2024-01-15T02:14:56;5.00;;;0.57;;
41446;SDS011;27185;52.040;4.490;2024-01-15T02:18:03;5.15;;;0.50;;
41446;SDS011;27185;52.040;4.490;2024-01-15T02:20:49;10.07;;;1.02;;
41446;SDS011;27185;52.040;4.490;2024-01-15T02:23:34;9.32;;;0.47;;
41446;SDS011;27185;52.040;4.490;2024-01-15T02:26:20;8.70;;;0.45;;
41446;SDS011;27185;52.040;4.490;2024-01-15T02:29:06;3.38;;;0.40;;
41446;SDS011;27185;52.040;4.490;2024-01-15T02:31:56;3.83;;;0.50;;
41446;SDS011;27185;52.040;4.490;2024-01-15T02:34:41;4.35;;;0.60;;
41446;SDS011;27185;52.040;4.490;2024-01-15T02:37:27;7.88;;;0.40;;
41446;SDS011;27185;52.040;4.490;2024-01-15T02:40:12;2.50;;;0.22;;
41446;SDS011;27185;52.040;4.490;2024-01-15T02:42:58;6.18;;;0.47;;
41446;SDS011;27185;52.040;4.490;2024-01-15T02:45:44;4.93;;;0.65;;
41446;SDS011;27185;52.040;4.490;2024-01-15T02:48:30;5.40;;;0.40;;
41446;SDS011;27185;52.040;4.490;2024-01-15T02:51:16;3.63;;;0.30;;
41446;SDS011;27185;52.040;4.490;2024-01-15T02:54:01;10.02;;;0.40;;
41446;SDS011;27185;52.040;4.490;2024-01-15T02:56:47;4.60;;;0.50;;
41446;SDS011;27185;52.040;4.490;2024-01-15T02:59:32;3.97;;;0.40;;
41446;SDS011;27185;52.040;4.490;2024-01-15T03:02:18;5.65;;;1.00;;
41446;SDS011;27185;52.040;4.490;2024-01-15T03:05:03;7.40;;;0.43;;
41446;SDS011;27185;52.040;4.490;2024-01-15T03:07:49;4.15;;;0.70;;
41446;SDS011;27185;52.040;4.490;2024-01-15T03:10:35;3.42;;;0.40;;
41446;SDS011;27185;52.040;4.490;2024-01-15T03:13:20;5.55;;;0.50;;
41446;SDS011;27185;52.040;4.490;2024-01-15T03:16:06;7.05;;;0.60;;
41446;SDS011;27185;52.040;4.490;2024-01-15T03:18:51;6.88;;;0.40;;
41446;SDS011;27185;52.040;4.490;2024-01-15T03:21:37;7.10;;;0.60;;
41446;SDS011;27185;52.040;4.490;2024-01-15T03:24:22;5.57;;;0.65;;
41446;SDS011;27185;52.040;4.490;2024-01-15T03:27:08;7.82;;;1.20;;
41446;SDS011;27185;52.040;4.490;2024-01-15T03:29:53;6.05;;;0.52;;
41446;SDS011;27185;52.040;4.490;2024-01-15T03:32:39;4.60;;;0.50;;
41446;SDS011;27185;52.040;4.490;2024-01-15T03:35:25;6.10;;;0.60;;
41446;SDS011;27185;52.040;4.490;2024-01-15T03:38:14;3.88;;;0.50;;
41446;SDS011;27185;52.040;4.490;2024-01-15T03:40:59;6.40;;;0.50;;
41446;SDS011;27185;52.040;4.490;2024-01-15T03:43:45;6.25;;;0.40;;
41446;SDS011;27185;52.040;4.490;2024-01-15T03:46:31;5.70;;;0.50;;
41446;SDS011;27185;52.040;4.490;2024-01-15T03:49:17;2.95;;;0.30;;
41446;SDS011;27185;52.040;4.490;2024-01-15T03:52:02;2.30;;;0.30;;
41446;SDS011;27185;52.040;4.490;2024-01-15T03:54:48;2.75;;;0.30;;
41446;SDS011;27185;52.040;4.490;2024-01-15T03:57:33;7.03;;;0.50;;
41446;SDS011;27185;52.040;4.490;2024-01-15T04:00:19;4.35;;;0.45;;
41446;SDS011;27185;52.040;4.490;2024-01-15T04:03:05;3.35;;;0.30;;
41446;SDS011;27185;52.040;4.490;2024-01-15T04:05:50;8.90;;;0.68;;
41446;SDS011;27185;52.040;4.490;2024-01-15T04:08:36;3.75;;;0.45;;
41446;SDS011;27185;52.040;4.490;2024-01-15T04:11:21;0.68;;;0.20;;
41446;SDS011;27185;52.040;4.490;2024-01-15T04:14:07;2.40;;;0.20;;
41446;SDS011;27185;52.040;4.490;2024-01-15T04:16:53;3.70;;;0.30;;
41446;SDS011;27185;52.040;4.490;2024-01-15T04:19:38;1.20;;;0.20;;
41446;SDS011;27185;52.040;4.490;2024-01-15T04:22:24;1.60;;;0.28;;
41446;SDS011;27185;52.040;4.490;2024-01-15T04:25:10;7.28;;;0.85;;
41446;SDS011;27185;52.040;4.490;2024-01-15T04:27:56;2.80;;;0.20;;
41446;SDS011;27185;52.040;4.490;2024-01-15T04:30:41;5.93;;;0.28;;
41446;SDS011;27185;52.040;4.490;2024-01-15T04:33:27;4.10;;;0.30;;
41446;SDS011;27185;52.040;4.490;2024-01-15T04:36:12;6.60;;;0.60;;
41446;SDS011;27185;52.040;4.490;2024-01-15T04:38:58;7.57;;;0.63;;
41446;SDS011;27185;52.040;4.490;2024-01-15T04:41:43;4.15;;;0.35;;
41446;SDS011;27185;52.040;4.490;2024-01-15T04:44:29;2.33;;;0.30;;
41446;SDS011;27185;52.040;4.490;2024-01-15T04:47:14;2.65;;;0.30;;
41446;SDS011;27185;52.040;4.490;2024-01-15T04:50:00;3.88;;;0.30;;
41446;SDS011;27185;52.040;4.490;2024-01-15T04:52:46;2.47;;;0.20;;
41446;SDS011;27185;52.040;4.490;2024-01-15T04:55:31;5.22;;;0.60;;
41446;SDS011;27185;52.040;4.490;2024-01-15T04:58:17;3.40;;;0.55;;
41446;SDS011;27185;52.040;4.490;2024-01-15T05:01:05;2.53;;;0.30;;
41446;SDS011;27185;52.040;4.490;2024-01-15T05:03:53;2.70;;;0.30;;
41446;SDS011;27185;52.040;4.490;2024-01-15T05:06:38;5.95;;;0.40;;
41446;SDS011;27185;52.040;4.490;2024-01-15T05:09:24;2.63;;;0.47;;
41446;SDS011;27185;52.040;4.490;2024-01-15T05:12:09;4.88;;;0.30;;
41446;SDS011;27185;52.040;4.490;2024-01-15T05:14:56;4.03;;;0.40;;
41446;SDS011;27185;52.040;4.490;2024-01-15T05:17:41;1.92;;;0.30;;
41446;SDS011;27185;52.040;4.490;2024-01-15T05:20:27;1.42;;;0.20;;
41446;SDS011;27185;52.040;4.490;2024-01-15T05:23:13;4.65;;;0.40;;
41446;SDS011;27185;52.040;4.490;2024-01-15T05:25:58;6.28;;;0.60;;
41446;SDS011;27185;52.040;4.490;2024-01-15T05:28:44;5.30;;;0.40;;
41446;SDS011;27185;52.040;4.490;2024-01-15T05:31:29;1.70;;;0.30;;
41446;SDS011;27185;52.040;4.490;2024-01-15T05:34:15;5.15;;;0.73;;
41446;SDS011;27185;52.040;4.490;2024-01-15T05:37:00;5.50;;;0.50;;
41446;SDS011;27185;52.040;4.490;2024-01-15T05:39:46;5.05;;;0.52;;
41446;SDS011;27185;52.040;4.490;2024-01-15T05:42:31;5.43;;;0.50;;
41446;SDS011;27185;52.040;4.490;2024-01-15T05:45:17;7.70;;;0.80;;
41446;SDS011;27185;52.040;4.490;2024-01-15T05:48:02;10.13;;;1.15;;
41446;SDS011;27185;52.040;4.490;2024-01-15T05:50:48;4.95;;;0.60;;
41446;SDS011;27185;52.040;4.490;2024-01-15T05:53:34;6.65;;;0.80;;
41446;SDS011;27185;52.040;4.490;2024-01-15T05:56:20;6.30;;;0.50;;
41446;SDS011;27185;52.040;4.490;2024-01-15T05:59:05;9.02;;;0.43;;
41446;SDS011;27185;52.040;4.490;2024-01-15T06:01:51;8.15;;;0.82;;
41446;SDS011;27185;52.040;4.490;2024-01-15T06:04:37;5.78;;;0.70;;
41446;SDS011;27185;52.040;4.490;2024-01-15T06:07:22;6.50;;;0.60;;
41446;SDS011;27185;52.040;4.490;2024-01-15T06:10:08;6.93;;;0.55;;
41446;SDS011;27185;52.040;4.490;2024-01-15T06:12:54;8.75;;;0.70;;
41446;SDS011;27185;52.040;4.490;2024-01-15T06:15:40;9.73;;;0.63;;
41446;SDS011;27185;52.040;4.490;2024-01-15T06:18:25;2.58;;;0.35;;
41446;SDS011;27185;52.040;4.490;2024-01-15T06:21:11;7.97;;;0.75;;
41446;SDS011;27185;52.040;4.490;2024-01-15T06:23:59;2.10;;;0.40;;
41446;SDS011;27185;52.040;4.490;2024-01-15T06:26:45;1.95;;;0.30;;
41446;SDS011;27185;52.040;4.490;2024-01-15T06:29:31;1.75;;;0.35;;
41446;SDS011;27185;52.040;4.490;2024-01-15T06:32:17;2.30;;;0.32;;
41446;SDS011;27185;52.040;4.490;2024-01-15T06:35:03;3.45;;;0.30;;
41446;SDS011;27185;52.040;4.490;2024-01-15T06:37:49;1.48;;;0.30;;
41446;SDS011;27185;52.040;4.490;2024-01-15T06:40:35;3.38;;;0.30;;
41446;SDS011;27185;52.040;4.490;2024-01-15T06:43:21;3.55;;;0.73;;
41446;SDS011;27185;52.040;4.490;2024-01-15T06:46:06;2.88;;;0.30;;
41446;SDS011;27185;52.040;4.490;2024-01-15T06:48:52;3.53;;;0.40;;
41446;SDS011;27185;52.040;4.490;2024-01-15T06:51:37;4.90;;;0.50;;
41446;SDS011;27185;52.040;4.490;2024-01-15T06:54:35;5.40;;;0.55;;
41446;SDS011;27185;52.040;4.490;2024-01-15T06:57:21;3.03;;;0.30;;
41446;SDS011;27185;52.040;4.490;2024-01-15T07:00:07;5.13;;;0.57;;
41446;SDS011;27185;52.040;4.490;2024-01-15T07:02:58;8.68;;;1.15;;
41446;SDS011;27185;52.040;4.490;2024-01-15T07:05:44;5.15;;;0.50;;
41446;SDS011;27185;52.040;4.490;2024-01-15T07:08:29;5.00;;;0.43;;
41446;SDS011;27185;52.040;4.490;2024-01-15T07:11:15;11.88;;;0.50;;
41446;SDS011;27185;52.040;4.490;2024-01-15T07:14:00;7.70;;;0.60;;
41446;SDS011;27185;52.040;4.490;2024-01-15T07:16:46;4.70;;;0.45;;
41446;SDS011;27185;52.040;4.490;2024-01-15T07:19:32;9.15;;;0.80;;
41446;SDS011;27185;52.040;4.490;2024-01-15T07:22:18;6.43;;;0.68;;
41446;SDS011;27185;52.040;4.490;2024-01-15T07:25:04;7.90;;;0.65;;
41446;SDS011;27185;52.040;4.490;2024-01-15T07:27:51;4.72;;;0.52;;
41446;SDS011;27185;52.040;4.490;2024-01-15T07:30:39;8.67;;;0.60;;
41446;SDS011;27185;52.040;4.490;2024-01-15T07:33:24;6.18;;;0.60;;
41446;SDS011;27185;52.040;4.490;2024-01-15T07:36:11;9.75;;;0.77;;
41446;SDS011;27185;52.040;4.490;2024-01-15T07:38:56;11.45;;;0.82;;
41446;SDS011;27185;52.040;4.490;2024-01-15T07:41:42;6.78;;;1.35;;
41446;SDS011;27185;52.040;4.490;2024-01-15T07:44:29;16.17;;;1.38;;
41446;SDS011;27185;52.040;4.490;2024-01-15T07:47:14;14.48;;;1.58;;
41446;SDS011;27185;52.040;4.490;2024-01-15T07:50:00;19.70;;;1.63;;
41446;SDS011;27185;52.040;4.490;2024-01-15T07:52:46;10.95;;;0.85;;
41446;SDS011;27185;52.040;4.490;2024-01-15T07:55:31;11.77;;;1.10;;
41446;SDS011;27185;52.040;4.490;2024-01-15T07:58:17;12.50;;;1.23;;
41446;SDS011;27185;52.040;4.490;2024-01-15T08:01:03;8.57;;;1.13;;
41446;SDS011;27185;52.040;4.490;2024-01-15T08:03:48;10.27;;;0.95;;
41446;SDS011;27185;52.040;4.490;2024-01-15T08:06:34;7.68;;;1.02;;
41446;SDS011;27185;52.040;4.490;2024-01-15T08:09:20;14.65;;;1.45;;
41446;SDS011;27185;52.040;4.490;2024-01-15T08:12:06;12.15;;;1.48;;
41446;SDS011;27185;52.040;4.490;2024-01-15T08:14:51;13.68;;;1.40;;
41446;SDS011;27185;52.040;4.490;2024-01-15T08:17:37;12.02;;;0.90;;
41446;SDS011;27185;52.040;4.490;2024-01-15T08:20:23;10.23;;;1.05;;
41446;SDS011;27185;52.040;4.490;2024-01-15T08:23:08;5.10;;;1.15;;
41446;SDS011;27185;52.040;4.490;2024-01-15T08:25:54;3.60;;;0.47;;
41446;SDS011;27185;52.040;4.490;2024-01-15T08:28:40;3.45;;;0.70;;
41446;SDS011;27185;52.040;4.490;2024-01-15T08:31:26;10.02;;;0.68;;
41446;SDS011;27185;52.040;4.490;2024-01-15T08:34:12;8.45;;;0.50;;
41446;SDS011;27185;52.040;4.490;2024-01-15T08:36:57;4.47;;;0.68;;
41446;SDS011;27185;52.040;4.490;2024-01-15T08:39:43;9.07;;;0.50;;
41446;SDS011;27185;52.040;4.490;2024-01-15T08:42:29;6.50;;;0.60;;
41446;SDS011;27185;52.040;4.490;2024-01-15T08:45:14;13.35;;;1.00;;
41446;SDS011;27185;52.040;4.490;2024-01-15T08:48:00;5.18;;;0.50;;
41446;SDS011;27185;52.040;4.490;2024-01-15T08:50:46;9.45;;;0.63;;
41446;SDS011;27185;52.040;4.490;2024-01-15T08:53:31;3.88;;;0.43;;
41446;SDS011;27185;52.040;4.490;2024-01-15T08:56:19;4.65;;;0.40;;
41446;SDS011;27185;52.040;4.490;2024-01-15T08:59:05;4.50;;;0.50;;
41446;SDS011;27185;52.040;4.490;2024-01-15T09:01:52;6.10;;;0.55;;
41446;SDS011;27185;52.040;4.490;2024-01-15T09:04:38;6.03;;;0.90;;
41446;SDS011;27185;52.040;4.490;2024-01-15T09:07:23;4.68;;;1.00;;
41446;SDS011;27185;52.040;4.490;2024-01-15T09:10:10;4.47;;;0.60;;
41446;SDS011;27185;52.040;4.490;2024-01-15T09:12:56;6.63;;;0.52;;
41446;SDS011;27185;52.040;4.490;2024-01-15T09:15:41;8.93;;;0.82;;
41446;SDS011;27185;52.040;4.490;2024-01-15T09:18:27;6.47;;;0.52;;
41446;SDS011;27185;52.040;4.490;2024-01-15T09:21:13;5.07;;;0.70;;
41446;SDS011;27185;52.040;4.490;2024-01-15T09:24:02;6.70;;;0.60;;
41446;SDS011;27185;52.040;4.490;2024-01-15T09:26:47;11.05;;;0.98;;
41446;SDS011;27185;52.040;4.490;2024-01-15T09:29:33;7.15;;;0.60;;
41446;SDS011;27185;52.040;4.490;2024-01-15T09:32:18;5.60;;;0.68;;
41446;SDS011;27185;52.040;4.490;2024-01-15T09:35:04;9.20;;;0.80;;
41446;SDS011;27185;52.040;4.490;2024-01-15T09:37:51;6.60;;;0.75;;
41446;SDS011;27185;52.040;4.490;2024-01-15T09:40:37;5.78;;;0.63;;
41446;SDS011;27185;52.040;4.490;2024-01-15T09:43:23;6.43;;;0.50;;
41446;SDS011;27185;52.040;4.490;2024-01-15T09:46:09;4.18;;;0.40;;
41446;SDS011;27185;52.040;4.490;2024-01-15T09:48:56;6.95;;;0.63;;
41446;SDS011;27185;52.040;4.490;2024-01-15T09:51:42;4.30;;;0.40;;
41446;SDS011;27185;52.040;4.490;2024-01-15T09:54:28;3.78;;;0.68;;
41446;SDS011;27185;52.040;4.490;2024-01-15T09:57:13;4.57;;;0.40;;
41446;SDS011;27185;52.040;4.490;2024-01-15T09:59:59;5.88;;;0.50;;
41446;SDS011;27185;52.040;4.490;2024-01-15T10:02:49;4.72;;;0.43;;
41446;SDS011;27185;52.040;4.490;2024-01-15T10:05:34;6.53;;;0.60;;
41446;SDS011;27185;52.040;4.490;2024-01-15T10:08:20;3.83;;;0.50;;
41446;SDS011;27185;52.040;4.490;2024-01-15T10:11:07;7.57;;;0.83;;
41446;SDS011;27185;52.040;4.490;2024-01-15T10:13:53;14.27;;;1.13;;
41446;SDS011;27185;52.040;4.490;2024-01-15T10:16:42;6.40;;;0.90;;
41446;SDS011;27185;52.040;4.490;2024-01-15T10:19:30;7.20;;;0.80;;
41446;SDS011;27185;52.040;4.490;2024-01-15T10:25:05;7.13;;;0.73;;
41446;SDS011;27185;52.040;4.490;2024-01-15T10:28:09;5.40;;;0.65;;
41446;SDS011;27185;52.040;4.490;2024-01-15T10:30:55;8.45;;;0.82;;
41446;SDS011;27185;52.040;4.490;2024-01-15T10:33:42;3.13;;;0.50;;
41446;SDS011;27185;52.040;4.490;2024-01-15T10:36:28;4.85;;;0.63;;
41446;SDS011;27185;52.040;4.490;2024-01-15T10:39:15;6.43;;;0.60;;
41446;SDS011;27185;52.040;4.490;2024-01-15T10:42:01;4.75;;;0.55;;
41446;SDS011;27185;52.040;4.490;2024-01-15T10:44:47;8.57;;;0.93;;
41446;SDS011;27185;52.040;4.490;2024-01-15T10:47:32;10.18;;;0.93;;
41446;SDS011;27185;52.040;4.490;2024-01-15T10:50:27;9.68;;;0.73;;
41446;SDS011;27185;52.040;4.490;2024-01-15T10:53:15;6.85;;;0.85;;
41446;SDS011;27185;52.040;4.490;2024-01-15T10:56:02;7.22;;;1.13;;
41446;SDS011;27185;52.040;4.490;2024-01-15T10:58:50;10.68;;;1.17;;
41446;SDS011;27185;52.040;4.490;2024-01-15T11:01:37;6.45;;;0.60;;
41446;SDS011;27185;52.040;4.490;2024-01-15T11:04:23;7.43;;;0.85;;
41446;SDS011;27185;52.040;4.490;2024-01-15T11:07:11;4.63;;;0.60;;
41446;SDS011;27185;52.040;4.490;2024-01-15T11:09:59;7.03;;;1.08;;
41446;SDS011;27185;52.040;4.490;2024-01-15T11:12:44;6.88;;;0.50;;
41446;SDS011;27185;52.040;4.490;2024-01-15T11:15:32;6.82;;;0.70;;
41446;SDS011;27185;52.040;4.490;2024-01-15T11:21:43;6.32;;;0.50;;
41446;SDS011;27185;52.040;4.490;2024-01-15T11:24:35;6.85;;;0.40;;
41446;SDS011;27185;52.040;4.490;2024-01-15T11:30:40;4.78;;;0.50;;
41446;SDS011;27185;52.040;4.490;2024-01-15T11:33:32;8.80;;;1.13;;
41446;SDS011;27185;52.040;4.490;2024-01-15T11:36:19;7.35;;;0.60;;
41446;SDS011;27185;52.040;4.490;2024-01-15T11:39:39;6.50;;;0.50;;
41446;SDS011;27185;52.040;4.490;2024-01-15T11:42:17;8.50;;;0.70;;
41446;SDS011;27185;52.040;4.490;2024-01-15T11:45:04;9.00;;;1.00;;
41446;SDS011;27185;52.040;4.490;2024-01-15T11:50:56;7.88;;;0.75;;
41446;SDS011;27185;52.040;4.490;2024-01-15T11:53:48;12.95;;;1.65;;
41446;SDS011;27185;52.040;4.490;2024-01-15T11:56:37;11.95;;;0.98;;
41446;SDS011;27185;52.040;4.490;2024-01-15T11:59:23;10.95;;;1.10;;
41446;SDS011;27185;52.040;4.490;2024-01-15T12:02:09;10.45;;;1.02;;
41446;SDS011;27185;52.040;4.490;2024-01-15T12:04:58;10.73;;;1.00;;
41446;SDS011;27185;52.040;4.490;2024-01-15T12:07:47;7.95;;;0.82;;
41446;SDS011;27185;52.040;4.490;2024-01-15T12:10:35;9.05;;;0.73;;
41446;SDS011;27185;52.040;4.490;2024-01-15T12:13:21;6.97;;;1.35;;
41446;SDS011;27185;52.040;4.490;2024-01-15T12:16:07;8.75;;;1.00;;
41446;SDS011;27185;52.040;4.490;2024-01-15T12:18:53;13.55;;;1.00;;
41446;SDS011;27185;52.040;4.490;2024-01-15T12:21:39;12.20;;;1.38;;
41446;SDS011;27185;52.040;4.490;2024-01-15T12:24:24;10.55;;;1.10;;
41446;SDS011;27185;52.040;4.490;2024-01-15T12:27:10;7.32;;;0.95;;
41446;SDS011;27185;52.040;4.490;2024-01-15T12:29:58;13.27;;;1.20;;
41446;SDS011;27185;52.040;4.490;2024-01-15T12:32:44;13.47;;;1.07;;
41446;SDS011;27185;52.040;4.490;2024-01-15T12:35:31;10.38;;;1.55;;
41446;SDS011;27185;52.040;4.490;2024-01-15T12:38:19;21.33;;;1.55;;
41446;SDS011;27185;52.040;4.490;2024-01-15T12:41:05;11.02;;;0.98;;
41446;SDS011;27185;52.040;4.490;2024-01-15T12:43:51;11.68;;;1.20;;
41446;SDS011;27185;52.040;4.490;2024-01-15T12:46:37;12.02;;;1.48;;
41446;SDS011;27185;52.040;4.490;2024-01-15T12:49:23;10.73;;;1.55;;
41446;SDS011;27185;52.040;4.490;2024-01-15T12:52:09;11.27;;;1.48;;
41446;SDS011;27185;52.040;4.490;2024-01-15T12:54:55;16.65;;;1.45;;
41446;SDS011;27185;52.040;4.490;2024-01-15T12:57:41;8.77;;;1.52;;
41446;SDS011;27185;52.040;4.490;2024-01-15T13:00:27;9.55;;;1.45;;
41446;SDS011;27185;52.040;4.490;2024-01-15T13:03:13;18.40;;;1.45;;
41446;SDS011;27185;52.040;4.490;2024-01-15T13:05:58;13.40;;;1.60;;
41446;SDS011;27185;52.040;4.490;2024-01-15T13:08:44;10.45;;;1.40;;
41446;SDS011;27185;52.040;4.490;2024-01-15T13:11:29;19.05;;;1.27;;
41446;SDS011;27185;52.040;4.490;2024-01-15T13:14:15;9.15;;;1.13;;
41446;SDS011;27185;52.040;4.490;2024-01-15T13:17:01;7.50;;;0.60;;
41446;SDS011;27185;52.040;4.490;2024-01-15T13:19:59;3.40;;;0.50;;
41446;SDS011;27185;52.040;4.490;2024-01-15T13:22:45;7.20;;;0.63;;
41446;SDS011;27185;52.040;4.490;2024-01-15T13:25:31;11.77;;;1.00;;
41446;SDS011;27185;52.040;4.490;2024-01-15T13:28:36;18.52;;;1.23;;
41446;SDS011;27185;52.040;4.490;2024-01-15T13:31:22;10.25;;;1.30;;
41446;SDS011;27185;52.040;4.490;2024-01-15T13:34:08;7.75;;;0.70;;
41446;SDS011;27185;52.040;4.490;2024-01-15T13:36:54;11.55;;;1.00;;
41446;SDS011;27185;52.040;4.490;2024-01-15T13:39:40;14.60;;;1.33;;
41446;SDS011;27185;52.040;4.490;2024-01-15T13:42:26;9.52;;;1.35;;
41446;SDS011;27185;52.040;4.490;2024-01-15T13:45:12;14.73;;;1.42;;
41446;SDS011;27185;52.040;4.490;2024-01-15T13:48:01;8.35;;;1.10;;
41446;SDS011;27185;52.040;4.490;2024-01-15T13:50:50;10.10;;;1.23;;
41446;SDS011;27185;52.040;4.490;2024-01-15T13:53:36;11.20;;;1.65;;
41446;SDS011;27185;52.040;4.490;2024-01-15T13:56:23;7.22;;;1.02;;
41446;SDS011;27185;52.040;4.490;2024-01-15T13:59:08;11.35;;;1.17;;
41446;SDS011;27185;52.040;4.490;2024-01-15T14:01:54;11.00;;;1.60;;
41446;SDS011;27185;52.040;4.490;2024-01-15T14:04:40;14.57;;;1.95;;
41446;SDS011;27185;52.040;4.490;2024-01-15T14:07:26;18.70;;;2.33;;
41446;SDS011;27185;52.040;4.490;2024-01-15T14:10:12;13.93;;;2.40;;
41446;SDS011;27185;52.040;4.490;2024-01-15T14:12:59;11.57;;;1.50;;
41446;SDS011;27185;52.040;4.490;2024-01-15T14:15:44;11.05;;;1.65;;
41446;SDS011;27185;52.040;4.490;2024-01-15T14:18:30;10.85;;;1.42;;
41446;SDS011;27185;52.040;4.490;2024-01-15T14:21:16;12.05;;;1.63;;
41446;SDS011;27185;52.040;4.490;2024-01-15T14:24:01;8.30;;;1.45;;
41446;SDS011;27185;52.040;4.490;2024-01-15T14:26:47;7.65;;;1.17;;
41446;SDS011;27185;52.040;4.490;2024-01-15T14:29:33;11.43;;;1.45;;
41446;SDS011;27185;52.040;4.490;2024-01-15T14:32:18;7.57;;;1.40;;
41446;SDS011;27185;52.040;4.490;2024-01-15T14:35:04;8.98;;;1.75;;
41446;SDS011;27185;52.040;4.490;2024-01-15T14:37:50;7.45;;;0.98;;
41446;SDS011;27185;52.040;4.490;2024-01-15T14:40:36;8.15;;;1.00;;
41446;SDS011;27185;52.040;4.490;2024-01-15T14:43:22;16.20;;;1.75;;
41446;SDS011;27185;52.040;4.490;2024-01-15T14:46:08;10.93;;;1.80;;
41446;SDS011;27185;52.040;4.490;2024-01-15T14:48:53;7.22;;;1.00;;
41446;SDS011;27185;52.040;4.490;2024-01-15T14:51:39;7.93;;;1.20;;
41446;SDS011;27185;52.040;4.490;2024-01-15T14:54:24;11.73;;;1.13;;
41446;SDS011;27185;52.040;4.490;2024-01-15T14:57:10;14.70;;;1.20;;
41446;SDS011;27185;52.040;4.490;2024-01-15T14:59:56;14.73;;;1.38;;
41446;SDS011;27185;52.040;4.490;2024-01-15T15:02:48;11.85;;;1.10;;
41446;SDS011;27185;52.040;4.490;2024-01-15T15:05:33;9.43;;;0.93;;
41446;SDS011;27185;52.040;4.490;2024-01-15T15:08:19;4.90;;;0.82;;
41446;SDS011;27185;52.040;4.490;2024-01-15T15:11:05;6.25;;;0.65;;
41446;SDS011;27185;52.040;4.490;2024-01-15T15:13:50;3.28;;;0.40;;
41446;SDS011;27185;52.040;4.490;2024-01-15T15:16:36;4.97;;;0.55;;
41446;SDS011;27185;52.040;4.490;2024-01-15T15:19:22;2.42;;;0.47;;
41446;SDS011;27185;52.040;4.490;2024-01-15T15:22:07;4.05;;;0.77;;
41446;SDS011;27185;52.040;4.490;2024-01-15T15:24:56;4.38;;;0.60;;
41446;SDS011;27185;52.040;4.490;2024-01-15T15:27:42;5.85;;;0.82;;
41446;SDS011;27185;52.040;4.490;2024-01-15T15:30:27;5.55;;;0.98;;
41446;SDS011;27185;52.040;4.490;2024-01-15T15:33:13;7.63;;;0.88;;
41446;SDS011;27185;52.040;4.490;2024-01-15T15:36:00;18.92;;;1.50;;
41446;SDS011;27185;52.040;4.490;2024-01-15T15:38:49;7.50;;;0.90;;
41446;SDS011;27185;52.040;4.490;2024-01-15T15:41:35;6.07;;;0.75;;
41446;SDS011;27185;52.040;4.490;2024-01-15T15:44:21;9.63;;;0.98;;
41446;SDS011;27185;52.040;4.490;2024-01-15T15:47:07;9.88;;;1.23;;
41446;SDS011;27185;52.040;4.490;2024-01-15T15:49:53;13.18;;;2.00;;
41446;SDS011;27185;52.040;4.490;2024-01-15T15:52:38;7.65;;;1.30;;
41446;SDS011;27185;52.040;4.490;2024-01-15T15:55:24;17.40;;;1.88;;
41446;SDS011;27185;52.040;4.490;2024-01-15T15:58:10;8.68;;;1.10;;
41446;SDS011;27185;52.040;4.490;2024-01-15T16:00:55;9.63;;;1.30;;
41446;SDS011;27185;52.040;4.490;2024-01-15T16:03:41;9.05;;;1.27;;
41446;SDS011;27185;52.040;4.490;2024-01-15T16:06:27;10.45;;;1.17;;
41446;SDS011;27185;52.040;4.490;2024-01-15T16:09:12;11.48;;;2.85;;
41446;SDS011;27185;52.040;4.490;2024-01-15T16:11:58;10.60;;;2.50;;
41446;SDS011;27185;52.040;4.490;2024-01-15T16:14:44;7.43;;;1.63;;
41446;SDS011;27185;52.040;4.490;2024-01-15T16:17:30;6.40;;;1.38;;
41446;SDS011;27185;52.040;4.490;2024-01-15T16:20:16;14.30;;;1.42;;
41446;SDS011;27185;52.040;4.490;2024-01-15T16:23:02;10.93;;;1.52;;
41446;SDS011;27185;52.040;4.490;2024-01-15T16:25:48;12.85;;;1.40;;
41446;SDS011;27185;52.040;4.490;2024-01-15T16:28:34;17.73;;;3.38;;
41446;SDS011;27185;52.040;4.490;2024-01-15T16:31:20;10.25;;;1.23;;
41446;SDS011;27185;52.040;4.490;2024-01-15T16:34:05;10.35;;;1.67;;
41446;SDS011;27185;52.040;4.490;2024-01-15T16:36:51;10.68;;;1.42;;
41446;SDS011;27185;52.040;4.490;2024-01-15T16:39:36;11.40;;;1.58;;
41446;SDS011;27185;52.040;4.490;2024-01-15T16:42:22;10.70;;;1.40;;
41446;SDS011;27185;52.040;4.490;2024-01-15T16:45:08;12.35;;;1.90;;
41446;SDS011;27185;52.040;4.490;2024-01-15T16:47:54;12.02;;;1.48;;
41446;SDS011;27185;52.040;4.490;2024-01-15T16:50:39;9.00;;;1.15;;